Breckenridge, Michigan
Current Conditions -  °F | °C
As of 12:13 PM on Saturday 25 Oct 2014 (Local Time) from KAMN Reporting Station
Clear Clear  
Wind Chill: 62°   Ceiling: Unl
Heat Index: 62°   Visibility: 10mi
Dew Point: 49°   Wind: 16mph
Humidity: 62%   Direction: 260°W
Pressure: 29.79"   Gusts: 22mph
Location:  43.41°N, 84.48°W
Report Text: KAMN 251613Z AUTO 26014G19KT 10SM CLR 17/10 A2979 RMK AO2 T01670095
Loading
Personal Weather Stations






























Interactive Weather Map
Tropical Storm Tracking
New forecast layout! Learn more

10-Day Weather Forecast

Advertisements
Track Severe Weather on mobile